createdAt,value
2019-02-20T00:00:19.401Z,13.07
2019-02-20T00:02:48.624Z,12.77
2019-02-20T00:05:18.198Z,13.27
2019-02-20T00:07:48.077Z,13.23
2019-02-20T00:10:17.252Z,13.40
2019-02-20T00:12:46.515Z,13.97
2019-02-20T00:15:15.772Z,14.30
2019-02-20T00:17:45.021Z,14.63
2019-02-20T00:20:14.205Z,13.60
2019-02-20T00:22:43.377Z,14.80
2019-02-20T00:25:12.878Z,13.50
2019-02-20T00:27:42.149Z,14.53
2019-02-20T00:30:11.429Z,14.90
2019-02-20T00:32:40.682Z,14.70
2019-02-20T00:35:28.962Z,13.57
2019-02-20T00:37:58.137Z,14.53
2019-02-20T00:40:27.495Z,14.17
2019-02-20T00:42:59.841Z,15.40
2019-02-20T00:45:46.924Z,13.87
2019-02-20T00:48:22.833Z,14.97
2019-02-20T00:50:55.395Z,15.10
2019-02-20T00:53:29.030Z,14.43
2019-02-20T00:55:58.387Z,14.87
2019-02-20T00:58:27.565Z,14.63
2019-02-20T01:00:56.879Z,15.00
2019-02-20T01:03:26.122Z,14.80
2019-02-20T01:05:55.525Z,15.67
2019-02-20T01:08:24.720Z,14.57
2019-02-20T01:10:53.918Z,14.13
2019-02-20T01:13:25.821Z,15.10
2019-02-20T01:15:55.087Z,15.17
2019-02-20T01:18:24.717Z,16.20
2019-02-20T01:20:53.987Z,16.20
2019-02-20T01:23:23.175Z,15.07
2019-02-20T01:25:52.353Z,16.13
2019-02-20T01:28:21.620Z,15.17
2019-02-20T01:31:09.878Z,16.37
2019-02-20T01:33:39.057Z,16.80
2019-02-20T01:36:08.309Z,16.43
2019-02-20T01:38:37.506Z,16.03
2019-02-20T01:41:06.661Z,15.77
2019-02-20T01:43:35.931Z,16.17
2019-02-20T01:46:05.109Z,16.90
2019-02-20T01:48:34.301Z,16.70
2019-02-20T01:51:03.556Z,16.37
2019-02-20T01:53:51.807Z,16.17
2019-02-20T01:56:21.070Z,16.80
2019-02-20T01:58:51.493Z,16.53
2019-02-20T02:01:20.722Z,16.87
2019-02-20T02:03:49.972Z,15.50
2019-02-20T02:06:19.208Z,15.40
2019-02-20T02:08:48.473Z,15.97
2019-02-20T02:11:36.736Z,15.80
2019-02-20T02:14:05.912Z,15.37
2019-02-20T02:16:54.182Z,15.43
2019-02-20T02:19:23.428Z,15.63
2019-02-20T02:22:11.897Z,16.00
2019-02-20T02:24:41.099Z,16.47
2019-02-20T02:27:10.468Z,16.73
2019-02-20T02:29:39.737Z,15.40
2019-02-20T02:32:09.015Z,17.13
2019-02-20T02:34:38.200Z,17.37
2019-02-20T02:37:07.741Z,17.13
2019-02-20T02:39:36.900Z,17.03
2019-02-20T02:42:06.433Z,16.23
2019-02-20T02:44:54.734Z,16.20
2019-02-20T02:47:24.012Z,17.13
2019-02-20T02:49:53.184Z,17.80
2019-02-20T02:52:22.438Z,17.40
2019-02-20T02:54:51.818Z,17.77
2019-02-20T02:57:20.984Z,19.10
2019-02-20T02:59:50.191Z,18.33
2019-02-20T03:02:21.194Z,17.67
2019-02-20T03:04:50.438Z,17.23
2019-02-20T03:07:19.639Z,16.70
2019-02-20T03:09:49.794Z,17.23
2019-02-20T03:12:19.044Z,16.97
2019-02-20T03:14:48.237Z,17.13
2019-02-20T03:17:17.424Z,16.03
2019-02-20T03:19:46.617Z,17.40
2019-02-20T03:22:15.852Z,16.83
2019-02-20T03:24:45.141Z,17.37
2019-02-20T03:27:14.548Z,17.20
2019-02-20T03:29:43.745Z,17.63
2019-02-20T03:32:13.040Z,17.73
2019-02-20T03:34:43.091Z,18.87
2019-02-20T03:37:12.372Z,16.33
2019-02-20T03:39:41.566Z,17.20
2019-02-20T03:42:10.741Z,17.77
2019-02-20T03:44:40.637Z,16.87
2019-02-20T03:47:09.873Z,15.90
2019-02-20T03:49:39.073Z,16.60
2019-02-20T03:52:08.726Z,17.07
2019-02-20T03:54:38.002Z,16.43
2019-02-20T03:57:13.688Z,16.20
2019-02-20T03:59:43.268Z,17.13
2019-02-20T04:02:12.453Z,16.63
2019-02-20T04:04:41.743Z,17.90
2019-02-20T04:07:10.947Z,16.40
2019-02-20T04:09:40.240Z,16.20
2019-02-20T04:12:09.531Z,16.57
2019-02-20T04:14:38.786Z,16.90
2019-02-20T04:17:07.972Z,16.23
2019-02-20T04:19:37.238Z,16.70
2019-02-20T04:22:06.547Z,16.83
2019-02-20T04:24:35.740Z,16.93
2019-02-20T04:27:04.950Z,16.80
2019-02-20T04:29:34.133Z,16.80
2019-02-20T04:32:03.363Z,18.00
2019-02-20T04:34:33.062Z,18.07
2019-02-20T04:37:02.431Z,22.70
2019-02-20T04:39:31.627Z,19.93
2019-02-20T04:42:00.907Z,18.30
2019-02-20T04:44:30.169Z,17.43
2019-02-20T04:46:59.362Z,19.93
2019-02-20T04:49:28.531Z,19.77
2019-02-20T04:51:57.805Z,18.70
2019-02-20T04:54:26.970Z,18.17
2019-02-20T04:57:15.238Z,18.37
2019-02-20T04:59:44.464Z,17.43
2019-02-20T05:02:13.680Z,17.37
2019-02-20T05:04:42.885Z,17.23
2019-02-20T05:07:12.975Z,18.67
2019-02-20T05:09:42.218Z,17.63
2019-02-20T05:12:11.437Z,17.13
2019-02-20T05:14:40.666Z,18.27
2019-02-20T05:17:09.880Z,17.70
2019-02-20T05:19:39.077Z,17.40
2019-02-20T05:22:08.312Z,17.87
2019-02-20T05:24:37.585Z,17.33
2019-02-20T05:27:07.152Z,19.33
2019-02-20T05:29:36.368Z,19.33
2019-02-20T05:32:05.688Z,17.97
2019-02-20T05:34:34.903Z,18.37
2019-02-20T05:37:04.100Z,17.60
2019-02-20T05:39:33.346Z,18.03
2019-02-20T05:42:02.609Z,18.63
2019-02-20T05:44:31.807Z,17.40
2019-02-20T05:47:01.068Z,19.20
2019-02-20T05:49:30.330Z,18.77
2019-02-20T05:51:59.578Z,18.73
2019-02-20T05:54:34.341Z,17.70
2019-02-20T05:56:59.708Z,18.37
2019-02-20T05:59:28.898Z,18.87
2019-02-20T06:01:58.795Z,17.93
2019-02-20T06:04:28.092Z,18.67
2019-02-20T06:06:57.356Z,18.87
2019-02-20T06:09:26.532Z,18.17
2019-02-20T06:11:55.830Z,17.53
2019-02-20T06:14:25.081Z,16.30
2019-02-20T06:16:54.390Z,17.07
2019-02-20T06:19:23.655Z,17.83
2019-02-20T06:21:52.853Z,18.30
2019-02-20T06:24:22.030Z,17.10
2019-02-20T06:26:51.248Z,18.10
2019-02-20T06:29:22.421Z,19.60
2019-02-20T06:31:51.613Z,19.80
2019-02-20T06:34:39.866Z,18.97
2019-02-20T06:37:09.533Z,21.10
2019-02-20T06:39:38.721Z,16.90
2019-02-20T06:42:07.933Z,18.33
2019-02-20T06:44:37.195Z,18.60
2019-02-20T06:47:07.343Z,17.80
2019-02-20T06:49:37.307Z,18.27
2019-02-20T06:52:06.793Z,18.43
2019-02-20T06:54:35.949Z,19.23
2019-02-20T06:57:06.869Z,18.90
2019-02-20T06:59:36.063Z,19.10
2019-02-20T07:02:05.284Z,19.33
2019-02-20T07:04:34.517Z,19.57
2019-02-20T07:07:25.985Z,21.13
2019-02-20T07:10:18.365Z,22.97
2019-02-20T07:13:15.168Z,22.47
2019-02-20T07:16:27.219Z,20.07
2019-02-20T07:19:30.125Z,19.67
2019-02-20T07:22:24.556Z,18.83
2019-02-20T07:25:56.253Z,18.37
2019-02-20T07:29:00.785Z,19.27
2019-02-20T07:31:29.976Z,21.87
2019-02-20T07:33:59.163Z,21.83
2019-02-20T07:36:28.757Z,22.87
2019-02-20T07:38:57.979Z,22.63
2019-02-20T07:41:27.948Z,21.97
2019-02-20T07:43:57.224Z,29.23
2019-02-20T07:46:26.509Z,30.90
2019-02-20T07:48:55.769Z,32.07
2019-02-20T07:51:25.719Z,31.90
2019-02-20T07:53:54.970Z,33.77
2019-02-20T07:56:24.628Z,34.33
2019-02-20T07:58:53.807Z,36.37
2019-02-20T08:01:23.039Z,35.83
2019-02-20T08:03:52.372Z,25.37
2019-02-20T08:06:21.645Z,23.17
2019-02-20T08:08:50.853Z,27.47
2019-02-20T08:11:20.090Z,32.20
2019-02-20T08:13:49.427Z,29.53
2019-02-20T08:16:18.694Z,23.47
2019-02-20T08:18:47.910Z,22.43
2019-02-20T08:21:17.158Z,21.27
2019-02-20T08:23:46.369Z,20.37
2019-02-20T08:26:15.930Z,20.70
2019-02-20T08:28:45.152Z,19.33
2019-02-20T08:31:14.369Z,20.17
2019-02-20T08:33:43.731Z,19.73
2019-02-20T08:36:13.019Z,19.23
2019-02-20T08:38:42.289Z,19.77
2019-02-20T08:41:11.504Z,19.20
2019-02-20T08:43:40.955Z,19.97
2019-02-20T08:46:10.184Z,21.50
2019-02-20T08:48:39.458Z,20.67
2019-02-20T08:51:08.837Z,20.13
2019-02-20T08:53:38.447Z,21.53
2019-02-20T08:56:08.277Z,20.73
2019-02-20T08:58:37.548Z,20.63
2019-02-20T09:01:06.782Z,19.93
2019-02-20T09:03:36.056Z,18.83
2019-02-20T09:06:05.280Z,19.50
2019-02-20T09:08:34.546Z,20.43
2019-02-20T09:11:03.812Z,20.00
2019-02-20T09:13:33.090Z,20.50
2019-02-20T09:16:02.284Z,20.67
2019-02-20T09:18:32.426Z,21.00
2019-02-20T09:21:01.780Z,19.47
2019-02-20T09:23:31.172Z,19.07
2019-02-20T09:26:00.456Z,19.67
2019-02-20T09:28:30.463Z,20.07
2019-02-20T09:30:59.699Z,18.33
2019-02-20T09:33:29.177Z,19.60
2019-02-20T09:35:58.426Z,18.63
2019-02-20T09:38:27.648Z,17.83
2019-02-20T09:40:56.937Z,19.10
2019-02-20T09:43:26.458Z,17.73
2019-02-20T09:45:55.823Z,18.43
2019-02-20T09:48:25.175Z,18.17
2019-02-20T09:50:54.415Z,18.50
2019-02-20T09:53:23.984Z,20.00
2019-02-20T09:55:53.173Z,19.07
2019-02-20T09:58:22.364Z,18.43
2019-02-20T10:01:09.874Z,18.27
2019-02-20T10:03:39.084Z,18.33
2019-02-20T10:06:08.260Z,18.80
2019-02-20T10:08:37.538Z,18.83
2019-02-20T10:11:06.746Z,19.87
2019-02-20T10:13:36.015Z,20.60
2019-02-20T10:16:05.189Z,19.47
2019-02-20T10:18:53.656Z,18.97
2019-02-20T10:21:22.841Z,19.27
2019-02-20T10:23:52.108Z,19.13
2019-02-20T10:26:21.309Z,19.27
2019-02-20T10:28:50.599Z,19.13
2019-02-20T10:31:20.327Z,19.50
2019-02-20T10:33:49.775Z,20.67
2019-02-20T10:36:19.003Z,19.30
2019-02-20T10:38:50.847Z,20.47
2019-02-20T10:41:20.108Z,19.27
2019-02-20T10:44:08.376Z,18.87
2019-02-20T10:46:37.662Z,18.90
2019-02-20T10:49:06.865Z,18.83
2019-02-20T10:51:55.206Z,18.60
2019-02-20T10:54:24.645Z,17.50
2019-02-20T10:56:56.002Z,17.57
2019-02-20T10:59:25.246Z,17.87
2019-02-20T11:01:54.525Z,17.67
2019-02-20T11:04:23.780Z,17.73
2019-02-20T11:06:53.505Z,17.70
2019-02-20T11:09:22.797Z,17.70
2019-02-20T11:11:52.211Z,16.73
2019-02-20T11:14:21.433Z,15.33
2019-02-20T11:16:50.725Z,14.73
2019-02-20T11:19:19.951Z,15.33
2019-02-20T11:21:49.297Z,18.07
2019-02-20T11:24:18.584Z,15.77
2019-02-20T11:26:54.300Z,18.77
2019-02-20T11:29:18.825Z,16.17
2019-02-20T11:31:48.154Z,14.40
2019-02-20T11:34:17.512Z,14.97
2019-02-20T11:37:05.866Z,15.33
2019-02-20T11:39:37.771Z,29.00
2019-02-20T11:42:06.151Z,18.73
2019-02-20T11:44:35.427Z,15.20
2019-02-20T11:47:04.644Z,24.80
2019-02-20T11:49:52.989Z,15.73
2019-02-20T11:52:22.176Z,15.00
2019-02-20T11:54:51.361Z,15.93
2019-02-20T11:57:20.829Z,18.77
2019-02-20T11:59:50.112Z,15.43
2019-02-20T12:02:19.747Z,17.03
2019-02-20T12:04:49.074Z,14.63
2019-02-20T12:07:18.294Z,14.40
2019-02-20T12:09:47.500Z,14.83
2019-02-20T12:12:16.718Z,14.20
2019-02-20T12:14:46.001Z,14.30
2019-02-20T12:17:15.441Z,14.70
2019-02-20T12:19:44.641Z,16.43
2019-02-20T12:22:13.944Z,17.00
2019-02-20T12:24:43.165Z,18.43
2019-02-20T12:27:12.406Z,16.33
2019-02-20T12:29:41.668Z,20.90
2019-02-20T12:32:10.974Z,19.40
2019-02-20T12:34:40.152Z,18.57
2019-02-20T12:37:09.458Z,15.23
2019-02-20T12:39:38.656Z,30.00
2019-02-20T12:42:07.863Z,21.73
2019-02-20T12:44:37.040Z,28.90
2019-02-20T12:47:06.238Z,16.53
2019-02-20T12:49:35.408Z,19.97
2019-02-20T12:52:04.720Z,17.03
2019-02-20T12:54:34.039Z,16.13
2019-02-20T12:57:03.339Z,17.13
2019-02-20T12:59:32.523Z,17.93
2019-02-20T13:02:14.264Z,15.90
2019-02-20T13:04:43.658Z,17.00
2019-02-20T13:07:13.033Z,16.37
2019-02-20T13:09:42.232Z,16.93
2019-02-20T13:12:11.454Z,22.07
2019-02-20T13:14:59.751Z,19.40
2019-02-20T13:17:29.005Z,18.80
2019-02-20T13:19:58.186Z,16.63
2019-02-20T13:22:27.707Z,19.40
2019-02-20T13:25:16.090Z,16.47
2019-02-20T13:27:45.739Z,16.23
2019-02-20T13:30:15.028Z,15.20
2019-02-20T13:32:44.387Z,14.63
2019-02-20T13:35:15.901Z,14.80
2019-02-20T13:37:45.099Z,15.07
2019-02-20T13:40:15.525Z,13.97
2019-02-20T13:42:44.821Z,14.23
2019-02-20T13:45:14.291Z,14.67
2019-02-20T13:47:43.513Z,16.40
2019-02-20T13:50:12.956Z,15.93
2019-02-20T13:52:51.815Z,15.10
2019-02-20T13:55:13.959Z,15.57
2019-02-20T13:57:43.445Z,16.23
2019-02-20T14:00:13.550Z,18.57
2019-02-20T14:02:43.024Z,17.67
2019-02-20T14:05:12.349Z,20.40
2019-02-20T14:07:52.268Z,17.97
2019-02-20T14:10:21.698Z,15.40
2019-02-20T14:12:51.001Z,15.23
2019-02-20T14:15:20.257Z,16.63
2019-02-20T14:17:49.631Z,15.20
2019-02-20T14:20:27.211Z,15.73
2019-02-20T14:22:56.481Z,16.93
2019-02-20T14:25:28.873Z,18.17
2019-02-20T14:27:58.211Z,14.87
2019-02-20T14:30:29.805Z,14.23
2019-02-20T14:32:59.081Z,14.20
2019-02-20T14:35:28.505Z,14.73
2019-02-20T14:37:57.783Z,14.70
2019-02-20T14:40:27.251Z,14.30
2019-02-20T14:42:56.518Z,14.60
2019-02-20T14:45:25.887Z,14.00
2019-02-20T14:47:56.274Z,14.90
2019-02-20T14:50:25.621Z,15.93
2019-02-20T14:52:54.809Z,17.97
2019-02-20T14:55:24.104Z,17.37
2019-02-20T14:57:53.446Z,16.23
2019-02-20T15:00:23.619Z,15.70
2019-02-20T15:05:36.360Z,15.03
2019-02-20T15:08:09.161Z,15.17
2019-02-20T15:10:39.386Z,15.17
2019-02-20T15:13:08.685Z,14.70
2019-02-20T15:15:38.375Z,13.87
2019-02-20T15:18:07.591Z,14.97
2019-02-20T15:20:36.864Z,14.80
2019-02-20T15:23:10.668Z,13.33
2019-02-20T15:25:59.012Z,14.10
2019-02-20T15:28:31.059Z,13.90
2019-02-20T15:31:02.138Z,13.93
2019-02-20T15:33:31.417Z,13.23
2019-02-20T15:36:00.892Z,13.00
2019-02-20T15:38:30.104Z,14.43
2019-02-20T15:40:59.860Z,13.33
2019-02-20T15:43:29.891Z,13.30
2019-02-20T15:45:59.180Z,14.33
2019-02-20T15:48:28.551Z,14.80
2019-02-20T15:50:58.821Z,14.10
2019-02-20T15:53:28.140Z,14.40
2019-02-20T15:55:57.423Z,16.70
2019-02-20T15:58:27.335Z,16.47
2019-02-20T16:00:56.898Z,14.03
2019-02-20T16:03:26.308Z,14.90
2019-02-20T16:05:57.197Z,16.23
2019-02-20T16:08:26.709Z,17.53
2019-02-20T16:10:56.074Z,16.40
2019-02-20T16:13:25.410Z,15.07
2019-02-20T16:15:54.825Z,15.50
2019-02-20T16:18:24.299Z,16.27
2019-02-20T16:20:53.698Z,15.67
2019-02-20T16:23:24.775Z,15.70
2019-02-20T16:25:54.064Z,14.90
2019-02-20T16:28:27.904Z,16.17
2019-02-20T16:30:54.521Z,15.23
2019-02-20T16:33:23.854Z,15.10
2019-02-20T16:35:53.476Z,14.20
2019-02-20T16:38:23.097Z,14.87
2019-02-20T16:40:52.480Z,14.60
2019-02-20T16:43:22.075Z,15.57
2019-02-20T16:45:51.803Z,14.53
2019-02-20T16:48:21.221Z,13.50
2019-02-20T16:50:50.605Z,14.33
2019-02-20T16:53:20.809Z,27.43
2019-02-20T16:55:50.351Z,27.57
2019-02-20T16:58:19.887Z,20.17
2019-02-20T17:00:50.173Z,15.00
2019-02-20T17:03:19.996Z,14.67
2019-02-20T17:06:08.461Z,13.87
2019-02-20T17:08:38.461Z,18.27
2019-02-20T17:11:07.833Z,13.93
2019-02-20T17:13:37.353Z,16.97
2019-02-20T17:16:06.777Z,13.40
2019-02-20T17:18:36.201Z,12.73
2019-02-20T17:21:05.790Z,11.73
2019-02-20T17:23:35.502Z,11.73
2019-02-20T17:26:05.002Z,11.07
2019-02-20T17:28:35.037Z,10.20
2019-02-20T17:31:04.424Z,10.13
2019-02-20T17:33:33.856Z,9.83
2019-02-20T17:36:03.319Z,9.83
2019-02-20T17:38:33.530Z,10.23
2019-02-20T17:41:04.341Z,10.83
2019-02-20T17:43:33.670Z,10.70
2019-02-20T17:46:03.529Z,10.67
2019-02-20T17:48:32.869Z,11.00
2019-02-20T17:51:02.356Z,10.30
2019-02-20T17:53:32.023Z,10.30
2019-02-20T17:56:01.428Z,14.40
2019-02-20T17:58:30.858Z,12.27
2019-02-20T18:01:01.382Z,18.63
2019-02-20T18:03:30.830Z,19.83
2019-02-20T18:06:00.254Z,22.73
2019-02-20T18:08:30.035Z,28.80
2019-02-20T18:11:01.381Z,17.93
2019-02-20T18:13:30.856Z,19.23
2019-02-20T18:16:00.701Z,12.90
2019-02-20T18:18:30.078Z,10.97
2019-02-20T18:20:59.854Z,10.50
2019-02-20T18:23:30.445Z,11.27
2019-02-20T18:26:00.190Z,10.30
2019-02-20T18:28:31.587Z,11.27
2019-02-20T18:31:00.717Z,11.00
2019-02-20T18:33:30.138Z,10.80
2019-02-20T18:35:59.885Z,11.80
2019-02-20T18:38:29.528Z,11.97
2019-02-20T18:40:58.922Z,11.73
2019-02-20T18:43:28.760Z,10.60
2019-02-20T18:45:58.254Z,11.00
2019-02-20T18:48:29.362Z,11.07
2019-02-20T18:50:59.273Z,10.53
2019-02-20T18:53:30.971Z,10.63
2019-02-20T18:56:00.750Z,10.60
2019-02-20T18:58:49.265Z,10.80
2019-02-20T19:01:18.700Z,11.10
2019-02-20T19:03:48.478Z,10.23
2019-02-20T19:06:17.900Z,10.90
2019-02-20T19:09:12.519Z,10.60
2019-02-20T19:12:17.505Z,11.10
2019-02-20T19:15:19.769Z,11.27
2019-02-20T19:18:33.126Z,10.83
2019-02-20T19:21:43.071Z,10.50
2019-02-20T19:24:46.008Z,11.87
2019-02-20T19:28:02.449Z,14.23
2019-02-20T19:30:55.384Z,14.17
2019-02-20T19:34:02.876Z,13.80
2019-02-20T19:37:08.020Z,11.40
2019-02-20T19:40:13.839Z,10.33
2019-02-20T19:43:03.198Z,9.97
2019-02-20T19:45:52.970Z,9.97
2019-02-20T19:48:51.110Z,9.50
2019-02-20T19:51:50.878Z,9.77
2019-02-20T19:54:32.132Z,12.37
2019-02-20T19:57:26.197Z,9.60
2019-02-20T20:00:20.024Z,10.70
2019-02-20T20:03:25.715Z,10.33
2019-02-20T20:06:30.383Z,10.33
2019-02-20T20:09:19.906Z,11.87
2019-02-20T20:12:28.541Z,13.77
2019-02-20T20:15:52.322Z,13.47
2019-02-20T20:18:43.715Z,11.13
2019-02-20T20:21:38.174Z,11.60
2019-02-20T20:24:37.507Z,10.73
2019-02-20T20:27:46.951Z,11.20
2019-02-20T20:31:08.021Z,14.93
2019-02-20T20:34:30.322Z,14.93
2019-02-20T20:37:06.599Z,13.40
2019-02-20T20:40:32.931Z,11.73
2019-02-20T20:43:41.670Z,12.33
2019-02-20T20:46:42.502Z,11.13
2019-02-20T20:49:43.477Z,12.67
2019-02-20T20:52:49.481Z,12.27
2019-02-20T20:55:50.412Z,12.90
2019-02-20T20:58:38.708Z,12.80
2019-02-20T21:01:31.932Z,13.23
2019-02-20T21:04:48.563Z,15.83
2019-02-20T21:08:09.244Z,14.73
2019-02-20T21:11:21.387Z,13.30
2019-02-20T21:14:44.283Z,12.97
2019-02-20T21:17:57.385Z,14.03
2019-02-20T21:20:58.064Z,13.80
2019-02-20T21:24:13.511Z,13.60
2019-02-20T21:27:23.999Z,13.77
2019-02-20T21:30:36.296Z,13.37
2019-02-20T21:34:11.275Z,13.87
2019-02-20T21:37:01.394Z,14.07
2019-02-20T21:40:01.012Z,15.00
2019-02-20T21:42:52.873Z,17.03
2019-02-20T21:45:44.021Z,17.80
2019-02-20T21:48:56.063Z,17.60
2019-02-20T21:52:11.827Z,16.57
2019-02-20T21:55:27.169Z,17.23
2019-02-20T21:58:36.019Z,17.07
2019-02-20T22:01:35.115Z,17.40
2019-02-20T22:04:31.061Z,16.57
2019-02-20T22:07:31.479Z,15.33
2019-02-20T22:10:38.969Z,13.93
2019-02-20T22:13:55.729Z,14.00
2019-02-20T22:16:41.792Z,14.30
2019-02-20T22:19:34.003Z,15.97
2019-02-20T22:22:36.867Z,15.33
2019-02-20T22:25:43.635Z,14.80
2019-02-20T22:29:06.382Z,14.40
2019-02-20T22:31:54.597Z,14.20
2019-02-20T22:34:55.322Z,15.20
2019-02-20T22:37:54.214Z,13.10
2019-02-20T22:40:52.967Z,14.50
2019-02-20T22:43:44.541Z,15.10
2019-02-20T22:46:58.066Z,16.17
2019-02-20T22:50:03.127Z,15.30
2019-02-20T22:52:53.505Z,16.00
2019-02-20T22:56:03.580Z,16.93
2019-02-20T22:58:41.482Z,16.43
2019-02-20T23:01:38.308Z,15.97
2019-02-20T23:04:31.850Z,15.87
2019-02-20T23:07:30.194Z,16.63
2019-02-20T23:10:34.492Z,17.17
2019-02-20T23:13:29.748Z,15.90
2019-02-20T23:15:58.936Z,16.13
2019-02-20T23:18:28.156Z,15.83
2019-02-20T23:20:57.450Z,14.73
2019-02-20T23:23:26.648Z,15.27
2019-02-20T23:26:07.642Z,16.30
2019-02-20T23:28:36.928Z,16.60
2019-02-20T23:31:06.139Z,16.90
2019-02-20T23:33:35.342Z,16.33
2019-02-20T23:36:04.524Z,16.57
2019-02-20T23:38:33.813Z,15.57
2019-02-20T23:41:03.079Z,14.77
2019-02-20T23:43:32.321Z,15.37
2019-02-20T23:46:01.611Z,14.60
2019-02-20T23:48:30.858Z,14.73
2019-02-20T23:51:00.042Z,15.80
2019-02-20T23:53:29.237Z,15.60
2019-02-20T23:55:58.517Z,15.67
2019-02-20T23:58:27.691Z,16.47
